Time;durP1;ratioP1;P1;durP2;ratioP2;P2;SDS_P1;SDS_P2;PMS_P1;PMS_P2;Temp;Humidity;BMP_temperature;BMP_pressure;BME280_temperature;BME280_humidity;BME280_pressure;Samples;Min_cycle;Max_cycle;Signal;HPM_P1;HPM_P2
2021/10/16 00:02:09;;;;;;;8.75;6.50;;;7.10;99.80;;;;;;5043347;28;20223;-86
2021/10/16 00:04:39;;;;;;;8.20;7.05;;;6.80;99.80;;;;;;5056235;28;20241;-87
2021/10/16 00:07:07;;;;;;;9.15;7.05;;;6.60;99.80;;;;;;5062555;28;20261;-87
2021/10/16 00:09:35;;;;;;;9.67;6.90;;;6.50;99.80;;;;;;5055967;28;20739;-86
2021/10/16 00:12:03;;;;;;;9.65;7.70;;;6.50;99.80;;;;;;5048473;28;20475;-87
2021/10/16 00:14:31;;;;;;;10.65;7.43;;;6.60;99.80;;;;;;5048021;28;20248;-87
2021/10/16 00:16:59;;;;;;;10.63;7.33;;;6.60;99.80;;;;;;5040013;28;20231;-87
2021/10/16 00:19:27;;;;;;;9.93;8.07;;;6.60;99.80;;;;;;5054904;28;20561;-86
2021/10/16 00:21:57;;;;;;;9.05;7.70;;;6.60;99.80;;;;;;5056866;28;20224;-87
2021/10/16 00:24:25;;;;;;;11.45;7.57;;;6.60;99.80;;;;;;5036088;28;20235;-86
2021/10/16 00:26:53;;;;;;;12.80;9.07;;;6.70;99.80;;;;;;5048158;28;20259;-86
2021/10/16 00:29:21;;;;;;;10.77;8.10;;;6.60;99.80;;;;;;5046003;28;20467;-86
2021/10/16 00:31:50;;;;;;;10.00;8.00;;;6.60;99.80;;;;;;5036370;28;20233;-86
2021/10/16 00:34:18;;;;;;;7.65;6.93;;;6.50;99.80;;;;;;5033287;28;20477;-86
2021/10/16 00:36:46;;;;;;;8.60;7.33;;;6.30;99.80;;;;;;5032623;28;20232;-85
2021/10/16 00:39:16;;;;;;;10.27;7.88;;;6.30;99.80;;;;;;5058628;28;20478;-86
2021/10/16 00:41:44;;;;;;;8.38;7.45;;;6.20;99.80;;;;;;5055071;28;20231;-86
2021/10/16 00:44:16;;;;;;;14.88;8.43;;;6.30;99.80;;;;;;5055410;28;20227;-87
2021/10/16 00:46:45;;;;;;;14.48;9.15;;;6.20;99.80;;;;;;5055216;28;20225;-86
2021/10/16 00:49:15;;;;;;;14.88;10.10;;;6.20;99.80;;;;;;5051501;28;20690;-86
2021/10/16 00:51:44;;;;;;;14.18;10.05;;;6.30;99.80;;;;;;5061352;28;20222;-86
2021/10/16 00:54:13;;;;;;;14.15;9.60;;;6.30;99.80;;;;;;5057320;28;20704;-86
2021/10/16 00:56:43;;;;;;;14.63;9.90;;;6.40;99.80;;;;;;5042477;28;20242;-86
2021/10/16 00:59:12;;;;;;;13.15;9.63;;;6.40;99.80;;;;;;5054412;28;20632;-86
2021/10/16 01:01:40;;;;;;;14.52;10.35;;;6.40;99.80;;;;;;5041876;28;20231;-86
2021/10/16 01:04:08;;;;;;;14.90;10.32;;;6.50;99.80;;;;;;5034560;28;20707;-86
2021/10/16 01:06:37;;;;;;;16.88;11.23;;;6.50;99.80;;;;;;5051868;28;20239;-86
2021/10/16 01:09:09;;;;;;;19.67;10.52;;;6.50;99.80;;;;;;5042538;28;20227;-86
2021/10/16 01:11:39;;;;;;;16.17;10.95;;;6.50;99.80;;;;;;5035706;28;20311;-86
2021/10/16 01:14:12;;;;;;;19.33;10.75;;;6.60;99.80;;;;;;5056794;28;20227;-86
2021/10/16 01:16:42;;;;;;;14.43;9.98;;;6.60;99.80;;;;;;5027216;28;20225;-86
2021/10/16 01:19:13;;;;;;;12.63;8.18;;;6.60;99.80;;;;;;5041572;28;20226;-87
2021/10/16 01:21:44;;;;;;;13.80;8.88;;;6.60;99.80;;;;;;5055132;28;20231;-87
2021/10/16 01:24:14;;;;;;;11.13;8.52;;;6.60;99.80;;;;;;5046147;28;20244;-86
2021/10/16 01:26:44;;;;;;;11.13;8.30;;;6.60;99.80;;;;;;5056946;28;20251;-86
2021/10/16 01:29:15;;;;;;;11.45;8.52;;;6.50;99.80;;;;;;5050157;28;20848;-86
2021/10/16 01:31:44;;;;;;;10.75;8.57;;;6.30;99.80;;;;;;5060582;28;20235;-87
2021/10/16 01:34:12;;;;;;;14.02;8.75;;;6.10;99.80;;;;;;5060967;28;20673;-86
2021/10/16 01:36:43;;;;;;;9.40;7.90;;;6.00;99.80;;;;;;5051090;28;20309;-86
2021/10/16 01:39:11;;;;;;;8.63;7.72;;;5.80;99.80;;;;;;5053304;28;20242;-86
2021/10/16 01:41:40;;;;;;;9.30;7.47;;;5.70;99.80;;;;;;5050741;28;20251;-86
2021/10/16 01:44:09;;;;;;;9.90;7.50;;;5.60;99.80;;;;;;5045328;28;20236;-86
2021/10/16 01:46:38;;;;;;;9.30;7.30;;;5.50;99.80;;;;;;5045220;28;20235;-86
2021/10/16 01:49:11;;;;;;;7.40;5.83;;;5.40;99.80;;;;;;5047600;28;20232;-86
2021/10/16 01:51:40;;;;;;;8.32;7.18;;;5.40;99.80;;;;;;5063919;28;20483;-86
2021/10/16 01:54:09;;;;;;;8.27;6.50;;;5.30;99.80;;;;;;5056045;28;20235;-86
2021/10/16 01:56:38;;;;;;;8.40;6.22;;;5.30;99.80;;;;;;5051210;28;20235;-86
2021/10/16 01:59:16;;;;;;;7.47;6.53;;;5.30;99.80;;;;;;5055341;28;20226;-86
2021/10/16 02:02:05;;;;;;;7.30;6.60;;;5.30;99.80;;;;;;5030950;28;20608;-86
2021/10/16 02:04:33;;;;;;;7.35;6.65;;;5.30;99.80;;;;;;5043223;28;20260;-86
2021/10/16 02:07:01;;;;;;;8.70;7.68;;;5.20;99.80;;;;;;5065094;28;20243;-86
2021/10/16 02:09:31;;;;;;;10.07;7.78;;;5.20;99.80;;;;;;5060654;28;20616;-86
2021/10/16 02:11:59;;;;;;;11.27;7.45;;;5.10;99.80;;;;;;5044309;28;20709;-87
2021/10/16 02:14:27;;;;;;;9.60;7.38;;;5.10;99.80;;;;;;5033689;28;20232;-87
2021/10/16 02:16:55;;;;;;;9.32;8.15;;;5.10;99.80;;;;;;5049030;28;20745;-86
2021/10/16 02:19:23;;;;;;;8.70;6.88;;;5.00;99.80;;;;;;5050907;28;20240;-86
2021/10/16 02:21:51;;;;;;;7.68;6.88;;;5.00;99.80;;;;;;5055364;28;20235;-87
2021/10/16 02:24:19;;;;;;;9.18;7.05;;;5.00;99.80;;;;;;5052475;28;20238;-86
2021/10/16 02:26:48;;;;;;;6.15;5.53;;;5.00;99.80;;;;;;5048623;28;20621;-86
2021/10/16 02:29:16;;;;;;;8.20;6.93;;;4.90;99.80;;;;;;5055653;28;20694;-86
2021/10/16 02:31:44;;;;;;;7.65;6.57;;;4.90;99.80;;;;;;5031239;28;20224;-86
2021/10/16 02:34:12;;;;;;;10.13;6.70;;;4.90;99.80;;;;;;5044489;28;20235;-86
2021/10/16 02:36:40;;;;;;;8.40;6.38;;;4.90;99.80;;;;;;5042926;28;20235;-86
2021/10/16 02:39:08;;;;;;;8.68;7.07;;;4.90;99.80;;;;;;5040988;28;20235;-86
2021/10/16 02:41:36;;;;;;;7.68;6.97;;;4.90;99.80;;;;;;5049840;28;20761;-86
2021/10/16 02:44:06;;;;;;;7.82;6.63;;;4.80;99.80;;;;;;5041315;28;20234;-86
2021/10/16 02:46:34;;;;;;;7.50;6.72;;;4.80;99.80;;;;;;5057030;28;20234;-86
2021/10/16 02:49:02;;;;;;;9.63;7.00;;;4.80;99.80;;;;;;5057676;28;20313;-87
2021/10/16 02:51:30;;;;;;;9.25;6.35;;;4.70;99.80;;;;;;5057441;28;20228;-87
2021/10/16 02:53:58;;;;;;;8.38;6.50;;;4.70;99.80;;;;;;5046865;28;20599;-86
2021/10/16 02:56:26;;;;;;;6.90;6.15;;;4.60;99.80;;;;;;5058042;28;20231;-86
2021/10/16 02:58:54;;;;;;;6.22;5.38;;;4.60;99.80;;;;;;5040026;28;20922;-86
2021/10/16 03:01:23;;;;;;;6.13;4.90;;;4.60;99.80;;;;;;5032472;28;20242;-86
2021/10/16 03:03:52;;;;;;;7.53;6.50;;;4.50;99.80;;;;;;5057169;28;20317;-86
2021/10/16 03:06:20;;;;;;;7.97;6.70;;;4.50;99.80;;;;;;5039659;28;20251;-86
2021/10/16 03:08:48;;;;;;;7.80;6.00;;;4.50;99.80;;;;;;5035910;28;20233;-86
2021/10/16 03:11:16;;;;;;;7.15;6.22;;;4.40;99.80;;;;;;5062855;28;20236;-86
2021/10/16 03:13:44;;;;;;;6.80;5.85;;;4.40;99.80;;;;;;5041755;28;20235;-87
2021/10/16 03:16:12;;;;;;;7.18;5.57;;;4.40;99.80;;;;;;5043872;28;20245;-86
2021/10/16 03:18:41;;;;;;;5.75;5.20;;;4.30;99.80;;;;;;5028228;28;20839;-86
2021/10/16 03:21:09;;;;;;;6.90;4.45;;;4.30;99.80;;;;;;5045532;28;20767;-86
2021/10/16 03:23:37;;;;;;;8.73;5.20;;;4.20;99.80;;;;;;5051403;28;20236;-86
2021/10/16 03:26:05;;;;;;;7.28;5.07;;;4.20;99.80;;;;;;5038281;28;20569;-86
2021/10/16 03:28:34;;;;;;;6.88;5.25;;;4.10;99.80;;;;;;5038316;28;20233;-86
2021/10/16 03:31:02;;;;;;;5.25;4.78;;;4.10;99.80;;;;;;5037711;28;20636;-86
2021/10/16 03:33:30;;;;;;;8.90;5.22;;;4.10;99.80;;;;;;5049467;28;20236;-86
2021/10/16 03:35:59;;;;;;;4.90;4.47;;;4.10;99.80;;;;;;5039152;28;20231;-86
2021/10/16 03:38:27;;;;;;;7.57;4.22;;;4.00;99.80;;;;;;5036202;28;20699;-86
2021/10/16 03:40:55;;;;;;;5.57;4.53;;;4.00;99.80;;;;;;5057824;28;20372;-86
2021/10/16 03:43:23;;;;;;;5.75;5.20;;;3.90;99.80;;;;;;5038599;28;20235;-86
2021/10/16 03:45:51;;;;;;;9.05;4.35;;;3.80;99.80;;;;;;5057867;28;20239;-86
2021/10/16 03:48:19;;;;;;;10.82;4.38;;;3.80;99.80;;;;;;5023311;28;20226;-86
2021/10/16 03:50:47;;;;;;;6.68;4.25;;;3.70;99.80;;;;;;5039002;28;20246;-86
2021/10/16 03:53:17;;;;;;;13.73;4.30;;;3.70;99.80;;;;;;5053777;28;20237;-86
2021/10/16 03:55:46;;;;;;;9.13;3.78;;;3.60;99.80;;;;;;5046856;28;20228;-86
2021/10/16 03:58:14;;;;;;;5.15;4.10;;;3.60;99.80;;;;;;5044301;28;20233;-86
2021/10/16 04:00:42;;;;;;;3.72;3.42;;;3.50;99.80;;;;;;5030412;28;20739;-86
2021/10/16 04:03:10;;;;;;;5.95;4.47;;;3.50;99.80;;;;;;5038051;28;20300;-86
2021/10/16 04:05:38;;;;;;;11.10;4.28;;;3.40;99.80;;;;;;5047471;28;20227;-86
2021/10/16 04:08:08;;;;;;;4.53;3.75;;;3.40;99.80;;;;;;5052897;28;20236;-86
2021/10/16 04:10:38;;;;;;;4.75;4.03;;;3.30;99.80;;;;;;5042748;28;20681;-86
2021/10/16 04:13:06;;;;;;;9.02;4.78;;;3.30;99.80;;;;;;5018563;28;20239;-86
2021/10/16 04:15:34;;;;;;;6.32;4.35;;;3.30;99.80;;;;;;5037816;28;20630;-86
2021/10/16 04:18:02;;;;;;;11.70;5.40;;;3.30;99.80;;;;;;5045834;28;20726;-86
2021/10/16 04:20:30;;;;;;;5.10;4.60;;;3.20;99.80;;;;;;5045796;28;20594;-86
2021/10/16 04:22:58;;;;;;;5.22;4.32;;;3.20;99.80;;;;;;5016882;28;20240;-86
2021/10/16 04:25:26;;;;;;;5.20;4.10;;;3.20;99.80;;;;;;5045758;28;20222;-86
2021/10/16 04:27:55;;;;;;;4.55;4.15;;;3.20;99.80;;;;;;5050762;28;20226;-86
2021/10/16 04:30:23;;;;;;;8.15;4.20;;;3.30;99.80;;;;;;5037706;28;20249;-86
2021/10/16 04:32:51;;;;;;;5.90;4.63;;;3.40;99.80;;;;;;5039880;28;20309;-86
2021/10/16 04:35:19;;;;;;;6.50;4.60;;;3.40;99.80;;;;;;5049568;28;20711;-86
2021/10/16 04:37:48;;;;;;;5.07;4.40;;;3.40;99.80;;;;;;5053219;28;20228;-87
2021/10/16 04:40:18;;;;;;;6.05;4.28;;;3.50;99.80;;;;;;5053992;28;20252;-86
2021/10/16 04:42:47;;;;;;;4.22;3.83;;;3.50;99.80;;;;;;5036481;28;20237;-86
2021/10/16 04:45:16;;;;;;;4.10;3.70;;;3.60;99.80;;;;;;5046308;28;20231;-86
2021/10/16 04:47:44;;;;;;;5.05;3.95;;;3.60;99.80;;;;;;5046729;28;20257;-86
2021/10/16 04:50:13;;;;;;;8.43;5.50;;;3.60;99.80;;;;;;5043230;28;20242;-86
2021/10/16 04:52:40;;;;;;;8.30;6.45;;;3.70;99.80;;;;;;5039355;28;20236;-86
2021/10/16 04:55:09;;;;;;;7.72;5.70;;;3.80;99.80;;;;;;5042101;28;20226;-86
2021/10/16 04:57:37;;;;;;;8.05;6.20;;;3.80;99.80;;;;;;5040297;28;20766;-86
2021/10/16 05:00:07;;;;;;;7.72;5.47;;;3.90;99.80;;;;;;5026207;28;20656;-86
2021/10/16 05:02:36;;;;;;;4.90;4.50;;;3.90;99.80;;;;;;5033099;28;20242;-86
2021/10/16 05:05:05;;;;;;;5.95;5.35;;;3.90;99.80;;;;;;5041666;28;20615;-86
2021/10/16 05:07:33;;;;;;;6.03;3.88;;;4.00;99.80;;;;;;5050945;28;20233;-86
2021/10/16 05:10:02;;;;;;;4.50;4.10;;;4.00;99.80;;;;;;5065481;28;20292;-86
2021/10/16 05:12:31;;;;;;;4.10;3.72;;;3.90;99.80;;;;;;5048944;28;20265;-86
2021/10/16 05:14:59;;;;;;;5.20;4.43;;;3.90;99.80;;;;;;5031391;28;20227;-86
2021/10/16 05:17:28;;;;;;;5.60;5.10;;;3.90;99.80;;;;;;5047179;28;20255;-86
2021/10/16 05:19:57;;;;;;;6.90;5.28;;;3.90;99.80;;;;;;5036063;28;20223;-86
2021/10/16 05:22:25;;;;;;;6.40;5.13;;;3.80;99.80;;;;;;5050174;28;20235;-86
2021/10/16 05:24:53;;;;;;;4.95;4.53;;;3.90;99.80;;;;;;5038049;28;20225;-86
2021/10/16 05:27:21;;;;;;;5.07;4.63;;;3.80;99.80;;;;;;5039194;28;20227;-86
2021/10/16 05:29:49;;;;;;;7.95;4.95;;;3.80;99.80;;;;;;5040712;28;20229;-86
2021/10/16 05:32:17;;;;;;;5.43;4.68;;;3.80;99.80;;;;;;5025431;28;20242;-82
2021/10/16 05:34:45;;;;;;;5.68;4.63;;;3.80;99.80;;;;;;5044855;28;20230;-82
2021/10/16 05:37:14;;;;;;;6.22;5.00;;;3.80;99.80;;;;;;5048955;28;20902;-82
2021/10/16 05:39:42;;;;;;;6.55;4.38;;;3.80;99.80;;;;;;5056945;28;20233;-82
2021/10/16 05:42:10;;;;;;;8.60;5.30;;;3.80;99.80;;;;;;5058035;28;20232;-82
2021/10/16 05:44:38;;;;;;;5.68;4.50;;;3.70;99.80;;;;;;5046371;28;20224;-82
2021/10/16 05:47:06;;;;;;;7.45;5.25;;;3.70;99.80;;;;;;5056478;28;20218;-82
2021/10/16 05:49:35;;;;;;;6.00;4.35;;;3.70;99.80;;;;;;5051003;28;20238;-82
2021/10/16 05:52:04;;;;;;;6.43;5.30;;;3.70;99.80;;;;;;5064624;28;20696;-82
2021/10/16 05:54:33;;;;;;;8.60;5.43;;;3.60;99.80;;;;;;5048579;28;20243;-82
2021/10/16 05:57:01;;;;;;;6.30;5.03;;;3.70;99.80;;;;;;5038579;28;20607;-83
2021/10/16 05:59:29;;;;;;;7.35;4.75;;;3.70;99.80;;;;;;5050566;28;20241;-82
2021/10/16 06:01:57;;;;;;;6.05;5.22;;;3.60;99.80;;;;;;5031354;28;20632;-82
2021/10/16 06:04:27;;;;;;;9.60;5.50;;;3.70;99.80;;;;;;5053047;28;20226;-82
2021/10/16 06:06:55;;;;;;;8.35;5.35;;;3.70;99.80;;;;;;5029428;28;21082;-82
2021/10/16 06:09:23;;;;;;;7.60;5.63;;;3.70;99.80;;;;;;5048967;28;20271;-82
2021/10/16 06:11:53;;;;;;;6.13;5.28;;;3.80;99.80;;;;;;5050900;28;20230;-82
2021/10/16 06:14:21;;;;;;;6.97;5.28;;;3.80;99.80;;;;;;5032029;28;20237;-82
2021/10/16 06:16:48;;;;;;;6.05;4.90;;;3.90;99.80;;;;;;5029494;28;20226;-82
2021/10/16 06:19:17;;;;;;;7.10;5.60;;;3.90;99.80;;;;;;5051875;28;20237;-82
2021/10/16 06:21:45;;;;;;;11.50;6.00;;;4.00;99.80;;;;;;5059460;28;20234;-82
2021/10/16 06:24:13;;;;;;;7.78;5.55;;;4.10;99.80;;;;;;5051357;28;20234;-82
2021/10/16 06:26:41;;;;;;;8.88;5.65;;;4.20;99.80;;;;;;5040815;28;20249;-82
2021/10/16 06:29:10;;;;;;;5.90;5.30;;;4.30;99.80;;;;;;5037445;28;20227;-82
2021/10/16 06:31:38;;;;;;;8.35;6.18;;;4.40;99.80;;;;;;5037602;28;20669;-82
2021/10/16 06:34:07;;;;;;;8.75;6.60;;;4.50;99.80;;;;;;5043124;28;20835;-82
2021/10/16 06:36:35;;;;;;;7.97;6.00;;;4.60;99.80;;;;;;5050312;28;20289;-83
2021/10/16 06:39:03;;;;;;;8.90;5.90;;;4.70;99.80;;;;;;5038631;28;20890;-82
2021/10/16 06:41:31;;;;;;;9.88;6.30;;;4.80;99.80;;;;;;5049369;28;20238;-82
2021/10/16 06:43:59;;;;;;;7.35;6.38;;;4.80;99.80;;;;;;5037253;28;20222;-82
2021/10/16 06:46:28;;;;;;;8.88;6.28;;;4.90;99.80;;;;;;5041736;28;20726;-82
2021/10/16 06:48:56;;;;;;;8.93;6.95;;;5.00;99.80;;;;;;5046607;28;20255;-82
2021/10/16 06:51:24;;;;;;;13.18;7.10;;;5.10;99.80;;;;;;5063045;28;20242;-83
2021/10/16 06:53:52;;;;;;;9.52;7.13;;;5.20;99.80;;;;;;5062146;28;20627;-82
2021/10/16 06:56:20;;;;;;;10.30;7.90;;;5.30;99.80;;;;;;5061618;28;20239;-82
2021/10/16 06:58:48;;;;;;;10.35;7.30;;;5.40;99.80;;;;;;5037488;28;20690;-82
2021/10/16 07:01:16;;;;;;;9.75;6.63;;;5.40;99.80;;;;;;5055430;28;20227;-82
2021/10/16 07:03:46;;;;;;;8.75;6.55;;;5.40;99.80;;;;;;5056481;28;20239;-83
2021/10/16 07:06:14;;;;;;;7.25;5.75;;;5.50;99.80;;;;;;5053539;28;20225;-82
2021/10/16 07:08:42;;;;;;;9.45;5.93;;;5.50;99.80;;;;;;5044681;28;20271;-82
2021/10/16 07:11:11;;;;;;;7.68;5.30;;;5.50;99.80;;;;;;5064823;28;20262;-82
2021/10/16 07:13:39;;;;;;;7.20;5.10;;;5.60;99.80;;;;;;5050261;28;20694;-82
2021/10/16 07:16:08;;;;;;;6.72;5.65;;;5.70;99.80;;;;;;5054917;28;20219;-82
2021/10/16 07:18:36;;;;;;;7.05;6.20;;;5.70;99.80;;;;;;5058107;28;20298;-82
2021/10/16 07:21:06;;;;;;;17.08;6.40;;;5.80;99.80;;;;;;5062118;28;20220;-82
2021/10/16 07:23:54;;;;;;;7.57;5.80;;;5.80;99.80;;;;;;5057064;28;20227;-82
2021/10/16 07:26:22;;;;;;;9.57;6.07;;;5.90;99.80;;;;;;5064008;28;20241;-82
2021/10/16 07:28:50;;;;;;;7.35;5.68;;;5.90;99.80;;;;;;5050472;28;20246;-82
2021/10/16 07:31:19;;;;;;;5.50;4.97;;;6.00;99.80;;;;;;5040271;28;20684;-82
2021/10/16 07:33:47;;;;;;;6.20;4.70;;;6.00;99.80;;;;;;5047377;28;20242;-82
2021/10/16 07:36:16;;;;;;;10.90;5.03;;;6.00;99.80;;;;;;5057816;28;20227;-82
2021/10/16 07:38:44;;;;;;;7.00;4.95;;;6.10;99.80;;;;;;5046232;28;20618;-82
2021/10/16 07:41:12;;;;;;;7.75;5.18;;;6.20;99.80;;;;;;5054929;28;20625;-82
2021/10/16 07:43:40;;;;;;;5.50;5.00;;;6.20;99.80;;;;;;5052132;28;20235;-82
2021/10/16 07:46:09;;;;;;;6.63;5.28;;;6.20;99.80;;;;;;5040518;28;20223;-83
2021/10/16 07:48:37;;;;;;;6.93;5.63;;;6.20;99.80;;;;;;5027917;28;20219;-81
2021/10/16 07:51:04;;;;;;;6.63;4.55;;;6.30;99.80;;;;;;5047160;28;20223;-81
2021/10/16 07:53:34;;;;;;;8.77;5.90;;;6.40;99.80;;;;;;5030067;28;20237;-82
2021/10/16 07:56:02;;;;;;;6.45;5.47;;;6.60;99.80;;;;;;5039891;28;20231;-81
2021/10/16 07:58:30;;;;;;;10.27;5.93;;;6.80;99.80;;;;;;5007134;28;20229;-81
2021/10/16 08:00:58;;;;;;;7.97;4.85;;;6.90;99.80;;;;;;5026686;28;20576;-81
2021/10/16 08:03:26;;;;;;;6.32;5.05;;;7.00;99.80;;;;;;5031264;28;20309;-82
2021/10/16 08:05:54;;;;;;;9.32;5.38;;;7.10;99.80;;;;;;5043161;28;20232;-81
2021/10/16 08:08:22;;;;;;;7.53;5.70;;;7.10;99.80;;;;;;5035565;28;20236;-80
2021/10/16 08:10:51;;;;;;;11.40;6.50;;;7.10;99.80;;;;;;5012904;28;20257;-82
2021/10/16 08:13:19;;;;;;;8.00;5.80;;;7.10;99.80;;;;;;5017301;28;20236;-81
2021/10/16 08:15:48;;;;;;;8.88;6.30;;;7.00;99.80;;;;;;5036751;28;20220;-82
2021/10/16 08:18:17;;;;;;;16.63;8.43;;;7.10;99.80;;;;;;5050875;28;20690;-81
2021/10/16 08:20:45;;;;;;;12.80;8.00;;;7.10;99.80;;;;;;5056794;28;20698;-82
2021/10/16 08:23:13;;;;;;;14.57;9.43;;;7.10;99.80;;;;;;5040571;28;20652;-82
2021/10/16 08:25:42;;;;;;;17.45;9.52;;;7.10;99.80;;;;;;5066082;28;20247;-81
2021/10/16 08:28:13;;;;;;;11.75;10.02;;;7.10;99.80;;;;;;5043810;28;20231;-82
2021/10/16 08:30:50;;;;;;;10.60;7.97;;;7.10;99.80;;;;;;5046475;28;20232;-82
2021/10/16 08:33:18;;;;;;;13.07;8.73;;;7.00;99.80;;;;;;5035910;28;20713;-82
2021/10/16 08:35:46;;;;;;;13.48;9.88;;;6.90;99.80;;;;;;5063520;28;20228;-83
2021/10/16 08:38:15;;;;;;;15.02;9.57;;;6.80;99.80;;;;;;5052186;28;20231;-82
2021/10/16 08:40:45;;;;;;;12.30;8.57;;;6.80;99.80;;;;;;5052628;28;20266;-81
2021/10/16 08:43:15;;;;;;;10.52;8.63;;;6.90;99.80;;;;;;5027630;28;20232;-82
2021/10/16 08:45:45;;;;;;;9.43;7.32;;;6.90;99.80;;;;;;5050101;28;20672;-81
2021/10/16 08:48:15;;;;;;;8.35;6.60;;;7.00;99.80;;;;;;5051091;28;20653;-82
2021/10/16 08:50:47;;;;;;;11.80;7.70;;;7.10;99.80;;;;;;5057870;28;20228;-82
2021/10/16 08:53:15;;;;;;;16.73;6.72;;;7.20;99.80;;;;;;5034765;28;20232;-81
2021/10/16 08:55:44;;;;;;;12.00;7.68;;;7.40;99.80;;;;;;5050299;28;20220;-82
2021/10/16 08:58:12;;;;;;;12.83;6.40;;;7.50;99.80;;;;;;5036651;28;20709;-82
2021/10/16 09:00:49;;;;;;;8.77;7.43;;;7.60;99.80;;;;;;5020300;28;20479;-82
2021/10/16 09:03:28;;;;;;;7.30;6.00;;;7.80;99.80;;;;;;5017750;28;20487;-82
2021/10/16 09:06:06;;;;;;;8.75;6.95;;;8.00;99.80;;;;;;5056779;28;20515;-82
2021/10/16 09:08:35;;;;;;;8.10;7.10;;;8.10;99.80;;;;;;5053906;28;20606;-81
2021/10/16 09:11:29;;;;;;;8.10;6.30;;;8.10;99.80;;;;;;5058753;28;20497;-82
2021/10/16 09:14:00;;;;;;;8.97;6.30;;;8.10;99.80;;;;;;5031342;28;20483;-82
2021/10/16 09:16:33;;;;;;;6.60;5.90;;;8.20;99.80;;;;;;5035754;28;20548;-82
2021/10/16 09:19:19;;;;;;;10.07;6.63;;;8.20;99.80;;;;;;5041809;28;20227;-81
2021/10/16 09:21:50;;;;;;;9.57;7.07;;;8.40;99.80;;;;;;5046220;28;20555;-81
2021/10/16 09:24:20;;;;;;;7.30;5.13;;;8.50;99.80;;;;;;5040892;28;21228;-81
2021/10/16 09:26:50;;;;;;;9.07;6.30;;;8.60;99.80;;;;;;5040702;28;20943;-82
2021/10/16 09:29:19;;;;;;;8.20;6.50;;;8.60;99.80;;;;;;5044325;28;20470;-81
2021/10/16 09:31:51;;;;;;;11.13;5.20;;;8.60;99.80;;;;;;5044610;28;20469;-81
2021/10/16 09:34:25;;;;;;;7.77;6.40;;;8.70;99.80;;;;;;5030841;28;20562;-81
2021/10/16 09:37:03;;;;;;;8.17;6.90;;;8.80;99.80;;;;;;5047805;28;20475;-81
2021/10/16 09:39:32;;;;;;;7.57;6.00;;;8.90;99.80;;;;;;5023355;28;20482;-81
2021/10/16 09:42:00;;;;;;;8.80;5.50;;;9.00;99.80;;;;;;5044137;28;21087;-82
2021/10/16 09:44:30;;;;;;;8.27;5.20;;;9.10;99.80;;;;;;5044567;28;20466;-81
2021/10/16 09:47:05;;;;;;;8.73;5.60;;;9.30;99.80;;;;;;5018890;28;21003;-81
2021/10/16 09:49:36;;;;;;;5.70;4.97;;;9.40;99.80;;;;;;5042737;28;20474;-81
2021/10/16 09:52:06;;;;;;;6.27;5.23;;;9.60;99.80;;;;;;5036649;28;20463;-81
2021/10/16 09:54:35;;;;;;;7.13;4.57;;;9.80;99.80;;;;;;5054036;28;20481;-81
2021/10/16 09:57:07;;;;;;;7.27;5.60;;;10.00;99.80;;;;;;5068123;28;20483;-81
2021/10/16 09:59:37;;;;;;;12.57;6.70;;;10.10;99.80;;;;;;5063291;28;20882;-82
2021/10/16 10:02:07;;;;;;;10.80;6.03;;;10.20;99.80;;;;;;5036438;28;20475;-82
2021/10/16 10:04:38;;;;;;;6.97;4.73;;;10.30;99.80;;;;;;5028173;28;20474;-81
2021/10/16 10:07:07;;;;;;;9.10;5.83;;;10.50;99.80;;;;;;5050146;28;20489;-82
2021/10/16 10:09:38;;;;;;;6.77;5.40;;;10.60;99.80;;;;;;5029497;28;20470;-82
2021/10/16 10:12:07;;;;;;;6.67;5.53;;;10.70;99.80;;;;;;5037333;28;20505;-82
2021/10/16 10:14:39;;;;;;;8.97;4.83;;;10.80;99.80;;;;;;5034527;28;20479;-82
2021/10/16 10:17:10;;;;;;;10.13;5.10;;;10.90;99.80;;;;;;5029007;28;20931;-81
2021/10/16 10:19:40;;;;;;;5.83;4.43;;;10.90;99.80;;;;;;5045543;28;20975;-81
2021/10/16 10:22:12;;;;;;;5.93;5.20;;;10.90;99.80;;;;;;5067448;28;20480;-81
2021/10/16 10:24:44;;;;;;;7.20;5.63;;;11.00;99.80;;;;;;5052552;28;20482;-82
2021/10/16 10:27:15;;;;;;;9.30;5.80;;;11.10;99.80;;;;;;5050647;28;20479;-82
2021/10/16 10:29:46;;;;;;;4.87;4.27;;;11.10;99.80;;;;;;5046579;28;21098;-81
2021/10/16 10:32:19;;;;;;;5.97;5.33;;;11.20;99.80;;;;;;5053011;28;20526;-82
2021/10/16 10:34:59;;;;;;;4.83;4.30;;;11.40;99.80;;;;;;5021595;28;20478;-81
2021/10/16 10:37:37;;;;;;;4.77;4.27;;;11.50;99.80;;;;;;5033501;28;20476;-82
2021/10/16 10:40:18;;;;;;;11.23;5.07;;;11.70;99.80;;;;;;5033539;28;20640;-82
2021/10/16 10:42:57;;;;;;;8.10;4.43;;;11.80;99.80;;;;;;5031277;28;20471;-81
2021/10/16 10:45:48;;;;;;;8.10;4.90;;;12.10;99.80;;;;;;5045795;28;20472;-82
2021/10/16 10:48:20;;;;;;;10.33;4.57;;;;;;;;;;5025734;28;20484;-82
2021/10/16 10:50:54;;;;;;;7.30;4.97;;;;;;;;;;5049726;28;20466;-82
2021/10/16 10:53:30;;;;;;;4.90;3.77;;;;;;;;;;5068558;28;20476;-82
2021/10/16 10:56:00;;;;;;;7.80;4.00;;;;;;;;;;5044908;28;20458;-83
2021/10/16 10:58:47;;;;;;;6.23;3.73;;;;;;;;;;5046090;28;20470;-81
2021/10/16 11:01:30;;;;;;;7.70;4.37;;;;;;;;;;5025501;28;20477;-82
2021/10/16 11:04:03;;;;;;;7.47;3.83;;;;;;;;;;5031258;28;20855;-82
2021/10/16 11:06:31;;;;;;;4.53;3.50;;;;;;;;;;5033187;28;21200;-82
2021/10/16 11:09:14;;;;;;;5.70;3.53;;;;;;;;;;5015724;28;20484;-82
2021/10/16 11:11:46;;;;;;;5.27;3.40;;;;;;;;;;5040454;28;20461;-82
2021/10/16 11:14:14;;;;;;;4.13;3.47;;;;;;;;;;5054311;28;21010;-83
2021/10/16 11:16:53;;;;;;;3.90;2.90;;;;;;;;;;5048868;28;20487;-83
2021/10/16 11:19:23;;;;;;;5.03;3.90;;;;;;;;;;5033484;28;20484;-82
2021/10/16 11:21:52;;;;;;;5.70;3.00;;;;;;;;;;5032882;28;20514;-83
2021/10/16 11:24:20;;;;;;;8.73;3.10;;;;;;;;;;5022142;28;20469;-83
2021/10/16 11:26:52;;;;;;;4.23;3.30;;;;;;;;;;5041679;28;20470;-83
2021/10/16 11:29:35;;;;;;;4.07;3.20;;;;;;;;;;5039035;28;20471;-83
2021/10/16 11:32:13;;;;;;;4.37;2.90;;;;;;;;;;5026396;28;20548;-83
2021/10/16 11:34:55;;;;;;;3.07;2.53;;;;;;;;;;5046390;28;20972;-84
2021/10/16 11:37:36;;;;;;;6.30;3.10;;;;;;;;;;5032053;28;21096;-84
2021/10/16 11:40:06;;;;;;;5.70;3.07;;;;;;;;;;5034575;28;20473;-84
2021/10/16 11:42:34;;;;;;;8.17;3.10;;;;;;;;;;5042390;28;20481;-83
2021/10/16 11:45:03;;;;;;;2.10;1.90;;;;;;;;;;5030434;28;20482;-83
2021/10/16 11:47:31;;;;;;;4.10;2.50;;;;;;;;;;5032938;28;20516;-84
2021/10/16 11:50:09;;;;;;;6.73;2.53;;;;;;;;;;5026228;28;20494;-84
2021/10/16 11:52:37;;;;;;;8.90;3.53;;;;;;;;;;5041664;28;20463;-83
2021/10/16 11:55:16;;;;;;;6.10;2.30;;;;;;;;;;5034325;28;20460;-84
2021/10/16 11:57:44;;;;;;;4.43;2.70;;;;;;;;;;5045344;28;20473;-84
2021/10/16 12:00:19;;;;;;;4.70;2.57;;;;;;;;;;5034095;28;20470;-84
2021/10/16 12:02:47;;;;;;;5.27;2.53;;;;;;;;;;5045152;28;20485;-84
2021/10/16 12:05:18;;;;;;;3.90;2.43;;;;;;;;;;5046477;28;20842;-84
2021/10/16 12:07:46;;;;;;;2.60;2.17;;;;;;;;;;5026540;28;20472;-84
2021/10/16 12:10:22;;;;;;;2.70;1.93;;;;;;;;;;5024228;28;20502;-84
2021/10/16 12:13:10;;;;;;;2.73;1.97;;;;;;;;;;5008224;28;20987;-84
2021/10/16 12:15:47;;;;;;;6.83;1.97;;;;;;;;;;5021986;28;20554;-85
2021/10/16 12:18:19;;;;;;;5.50;2.10;;;;;;;;;;5018969;28;20467;-84
2021/10/16 12:20:50;;;;;;;6.20;2.67;;;;;;;;;;5022189;28;20464;-84
2021/10/16 12:23:18;;;;;;;4.07;2.50;;;;;;;;;;5017331;28;20478;-84
2021/10/16 12:25:51;;;;;;;2.83;1.70;;;;;;;;;;5038419;28;20486;-84
2021/10/16 12:28:20;;;;;;;6.27;1.90;;;;;;;;;;5044721;28;20488;-84
2021/10/16 12:31:15;;;;;;;3.83;2.67;;;;;;;;;;5037206;28;20476;-84
2021/10/16 12:34:02;;;;;;;2.23;2.03;;;;;;;;;;5041385;28;20476;-84
2021/10/16 12:36:32;;;;;;;3.27;2.17;;;;;;;;;;5024752;28;20476;-84
2021/10/16 12:39:01;;;;;;;3.30;2.13;;;;;;;;;;5055390;28;20473;-83
2021/10/16 12:41:35;;;;;;;4.40;2.70;;;;;;;;;;5066375;28;20468;-83
2021/10/16 12:44:15;;;;;;;5.50;2.20;;;;;;;;;;5041113;28;20483;-83
2021/10/16 12:46:43;;;;;;;6.23;3.33;;;;;;;;;;5038720;28;20474;-83
2021/10/16 12:49:26;;;;;;;6.10;2.53;;;;;;;;;;5049448;28;20827;-83
2021/10/16 12:51:57;;;;;;;10.37;3.07;;;;;;;;;;5039949;28;20466;-83
2021/10/16 12:54:38;;;;;;;6.10;1.93;;;;;;;;;;5045002;28;20459;-83
2021/10/16 12:57:08;;;;;;;2.03;1.60;;;;;;;;;;5036727;28;20466;-83
2021/10/16 12:59:36;;;;;;;10.93;2.10;;;;;;;;;;5040477;28;20531;-83
2021/10/16 13:02:05;;;;;;;5.93;1.93;;;;;;;;;;5017316;28;20940;-83
2021/10/16 13:04:40;;;;;;;3.83;1.40;;;;;;;;;;5033857;28;20508;-83
2021/10/16 13:07:10;;;;;;;4.30;1.63;;;;;;;;;;5053562;28;20954;-83
2021/10/16 13:09:38;;;;;;;2.63;1.60;;;;;;;;;;5065646;28;20499;-83
2021/10/16 13:12:07;;;;;;;6.23;2.07;;;;;;;;;;5065098;28;20828;-83
2021/10/16 13:14:35;;;;;;;6.30;2.30;;;15.90;87.10;;;;;;5053751;28;20495;-83
2021/10/16 13:17:03;;;;;;;3.27;1.80;;;15.60;87.80;;;;;;5064164;28;20552;-83
2021/10/16 13:19:31;;;;;;;5.30;2.03;;;15.50;89.20;;;;;;5071530;28;20480;-83
2021/10/16 13:22:00;;;;;;;5.40;2.07;;;15.30;90.70;;;;;;5066089;28;20861;-83
2021/10/16 13:24:29;;;;;;;4.20;1.97;;;15.20;92.80;;;;;;5064674;28;20465;-83
2021/10/16 13:26:57;;;;;;;6.30;2.10;;;15.00;91.50;;;;;;5038276;28;20477;-83